Terminal Aerodrome Forecast
Issued by NWS

Home | Current Version | Previous Version | Text Only | Print | Product List | Glossary On
Versions: 1 2 3 4 5 6 7 8 9 10 11 12 13 14 15 16 17 18 19 20 21 22 23 24 25 26 27 28 29 30 31 32 33 34 35
000
FTAK31 PANC 201618 AAB
TAFACD
TAF AMD
PACD 201618Z 2016/2112 VRB05KT P6SM VCFG FEW003 SCT025 OVC050
      TEMPO 2016/2020 4SM BR BKN003
     FM202100 04007KT P6SM VCSH SCT025 OVC050=

USA.gov is the U.S. government's official web portal to all federal, state and local government web resources and services.